| time (UTC) | temp F | wind direction | speed knots | gust knots | rain 1hr in | rain 24hr in | rain mn in | humidity % | barometer mb |
| 20260510020022 | 54 | 270 | 3.5 | 4.3 | 0.00 | 0.00 | 0.00 | 71 | 1017.1 |
| 20260510015021 | 55 | 289 | 3.5 | 5.2 | 0.00 | 0.00 | 0.00 | 71 | 1016.9 |
| 20260510014022 | 55 | 276 | 3.5 | 7.8 | 0.00 | 0.00 | 0.00 | 71 | 1016.7 |
| 20260510013021 | 55 | 295 | 4.3 | 8.7 | 0.00 | 0.00 | 0.00 | 70 | 1016.5 |
| 20260510012022 | 55 | 273 | 4.3 | 6.1 | 0.00 | 0.00 | 0.00 | 70 | 1016.4 |
| 20260510011021 | 55 | 287 | 2.6 | 4.3 | 0.00 | 0.00 | 0.00 | 70 | 1016.4 |
| 20260510010022 | 55 | 281 | 2.6 | 7.0 | 0.00 | 0.00 | 0.00 | 69 | 1016.2 |
| 20260510005021 | 55 | 284 | 1.7 | 5.2 | 0.00 | 0.00 | 0.00 | 68 | 1016.1 |
| 20260510004022 | 56 | 250 | 3.5 | 6.1 | 0.00 | 0.00 | 0.00 | 67 | 1015.9 |
| 20260510003021 | 55 | 202 | 1.7 | 4.3 | 0.00 | 0.00 | 0.00 | 68 | 1015.7 |
| 20260510002022 | 56 | 238 | 2.6 | 6.1 | 0.00 | 0.00 | 0.00 | 67 | 1015.5 |
| 20260510001021 | 56 | 251 | 3.5 | 6.1 | 0.00 | 0.00 | 0.00 | 66 | 1015.4 |
| 20260510000022 | 56 | 285 | 3.5 | 5.2 | 0.00 | 0.00 | 0.00 | 65 | 1015.4 |
| 20260509235021 | 56 | 270 | 2.6 | 5.2 | 0.00 | 0.00 | 0.00 | 65 | 1015.4 |
| 20260509234022 | 56 | 253 | 3.5 | 5.2 | 0.00 | 0.00 | 0.00 | 66 | 1015.4 |
| 20260509233021 | 57 | 260 | 4.3 | 7.8 | 0.00 | 0.00 | 0.00 | 64 | 1015.4 |
| 20260509232022 | 57 | 256 | 2.6 | 6.1 | 0.00 | 0.00 | 0.00 | 69 | 1015.3 |
| 20260509231021 | 58 | 242 | 3.5 | 6.1 | 0.00 | 0.00 | 0.00 | 68 | 1015.4 |
| 20260509230022 | 58 | 244 | 3.5 | 5.2 | 0.00 | 0.00 | 0.00 | 67 | 1015.2 |
| 20260509225021 | 58 | 262 | 3.5 | 4.3 | 0.00 | 0.00 | 0.00 | 68 | 1015.3 |
| 20260509224022 | 59 | 255 | 3.5 | 6.1 | 0.00 | 0.00 | 0.00 | 66 | 1015.3 |
| 20260509223021 | 59 | 239 | 3.5 | 4.3 | 0.00 | 0.00 | 0.00 | 65 | 1015.3 |
| 20260509222021 | 58 | 274 | 2.6 | 5.2 | 0.00 | 0.00 | 0.00 | 67 | 1015.2 |
| 20260509221021 | 57 | 224 | 2.6 | 5.2 | 0.00 | 0.00 | 0.00 | 68 | 1015.2 |
| 20260509220022 | 57 | 242 | 2.6 | 7.0 | 0.00 | 0.00 | 0.00 | 68 | 1015.2 |
| 20260509215021 | 56 | 228 | 3.5 | 6.1 | 0.00 | 0.00 | 0.00 | 68 | 1015.3 |
| 20260509214021 | 57 | 224 | 3.5 | 5.2 | 0.00 | 0.00 | 0.00 | 67 | 1015.2 |
| 20260509213022 | 57 | 213 | 2.6 | 5.2 | 0.00 | 0.00 | 0.00 | 66 | 1015.1 |
| 20260509212021 | 57 | 249 | 2.6 | 6.1 | 0.00 | 0.00 | 0.00 | 66 | 1015.1 |
| 20260509211024 | 57 | 246 | 2.6 | 7.8 | 0.00 | 0.00 | 0.00 | 67 | 1015.1 |
| 20260509210023 | 58 | 241 | 3.5 | 7.8 | 0.00 | 0.00 | 0.00 | 65 | 1014.9 |
| 20260509205022 | 59 | 221 | 4.3 | 8.7 | 0.00 | 0.00 | 0.00 | 62 | 1014.7 |
| 20260509204021 | 57 | 251 | 2.6 | 5.2 | 0.00 | 0.00 | 0.00 | 67 | 1014.8 |
| 20260509203021 | 56 | 204 | 2.6 | 7.0 | 0.00 | 0.00 | 0.00 | 68 | 1014.7 |
| 20260509202024 | 57 | 246 | 4.3 | 7.0 | 0.00 | 0.00 | 0.00 | 67 | 1014.6 |
| 20260509201023 | 60 | 232 | 3.5 | 6.1 | 0.00 | 0.00 | 0.00 | 62 | 1014.6 |
| 20260509200022 | 57 | 220 | 3.5 | 6.1 | 0.00 | 0.00 | 0.00 | 69 | 1014.6 |
| 20260509195021 | 57 | 248 | 2.6 | 5.2 | 0.00 | 0.00 | 0.00 | 70 | 1014.7 |
| 20260509194022 | 58 | 228 | 4.3 | 7.0 | 0.00 | 0.00 | 0.00 | 67 | 1014.9 |
| 20260509193022 | 59 | 228 | 3.5 | 7.8 | 0.00 | 0.00 | 0.00 | 65 | 1015.0 |
| 20260509192021 | 61 | 254 | 2.6 | 6.1 | 0.00 | 0.00 | 0.00 | 62 | 1015.0 |
| 20260509191022 | 59 | 211 | 3.5 | 7.0 | 0.00 | 0.00 | 0.00 | 66 | 1015.1 |
| 20260509190021 | 58 | 271 | 3.5 | 7.0 | 0.00 | 0.00 | 0.00 | 66 | 1015.1 |
| 20260509185022 | 58 | 237 | 3.5 | 6.1 | 0.00 | 0.00 | 0.00 | 67 | 1015.2 |
| 20260509184024 | 58 | 224 | 2.6 | 6.1 | 0.00 | 0.00 | 0.00 | 68 | 1015.3 |
| 20260509183022 | 57 | 241 | 3.5 | 6.1 | 0.00 | 0.00 | 0.00 | 67 | 1015.3 |
| 20260509182024 | 58 | 218 | 3.5 | 7.0 | 0.00 | 0.00 | 0.00 | 68 | 1015.4 |
| 20260509181024 | 57 | 228 | 2.6 | 4.3 | 0.00 | 0.00 | 0.00 | 71 | 1015.5 |
| 20260509180021 | 55 | 268 | 2.6 | 6.1 | 0.00 | 0.00 | 0.00 | 76 | 1015.8 |
| 20260509175024 | 54 | 237 | 3.5 | 4.3 | 0.00 | 0.00 | 0.00 | 75 | 1015.9 |
| 20260509174021 | 56 | 283 | 2.6 | 4.3 | 0.00 | 0.00 | 0.00 | 70 | 1016.0 |
| 20260509173021 | 57 | 192 | 0.9 | 3.5 | 0.00 | 0.00 | 0.00 | 63 | 1016.0 |
| 20260509172022 | 56 | 182 | 1.7 | 5.2 | 0.00 | 0.00 | 0.00 | 62 | 1016.0 |
| 20260509171022 | 58 | 47 | 1.7 | 5.2 | 0.00 | 0.00 | 0.00 | 64 | 1016.2 |
| 20260509170021 | 57 | 297 | 3.5 | 6.1 | 0.00 | 0.00 | 0.00 | 63 | 1016.2 |
| 20260509165021 | 58 | 271 | 5.2 | 7.8 | 0.00 | 0.00 | 0.00 | 60 | 1016.0 |
| 20260509164022 | 60 | 242 | 2.6 | 4.3 | 0.00 | 0.00 | 0.00 | 59 | 1016.0 |
| 20260509163021 | 56 | 268 | 1.7 | 4.3 | 0.00 | 0.00 | 0.00 | 69 | 1015.9 |
| 20260509162026 | 56 | 230 | 1.7 | 3.5 | 0.00 | 0.00 | 0.00 | 69 | 1015.9 |
| 20260509161021 | 54 | 233 | 2.6 | 4.3 | 0.00 | 0.00 | 0.00 | 71 | 1015.9 |
| 20260509160022 | 54 | 226 | 2.6 | 4.3 | 0.00 | 0.00 | 0.00 | 71 | 1015.9 |
| 20260509155022 | 55 | 257 | 2.6 | 3.5 | 0.00 | 0.00 | 0.00 | 67 | 1016.0 |
| 20260509154022 | 58 | 233 | 2.6 | 3.5 | 0.00 | 0.00 | 0.00 | 63 | 1016.0 |
| 20260509153021 | 57 | 238 | 0.9 | 3.5 | 0.00 | 0.00 | 0.00 | 60 | 1015.8 |
| 20260509152021 | 58 | 182 | 0.9 | 5.2 | 0.00 | 0.00 | 0.00 | 60 | 1015.6 |
| 20260509151024 | 56 | 295 | 2.6 | 4.3 | 0.00 | 0.00 | 0.00 | 60 | 1015.8 |
| 20260509150021 | 57 | 234 | 1.7 | 8.7 | 0.00 | 0.00 | 0.00 | 60 | 1015.9 |
| 20260509145022 | 57 | 289 | 1.7 | 6.1 | 0.00 | 0.00 | 0.00 | 57 | 1015.8 |
| 20260509144022 | 56 | 292 | 3.5 | 7.0 | 0.00 | 0.00 | 0.00 | 59 | 1015.5 |
| 20260509143022 | 54 | 296 | 4.3 | 7.8 | 0.00 | 0.00 | 0.00 | 68 | 1015.7 |
| 20260509142022 | 53 | 268 | 4.3 | 8.7 | 0.00 | 0.00 | 0.00 | 68 | 1015.8 |
| 20260509141022 | 53 | 290 | 4.3 | 9.6 | 0.00 | 0.00 | 0.00 | 72 | 1016.0 |
| 20260509140022 | 52 | 255 | 4.3 | 8.7 | 0.00 | 0.00 | 0.00 | 73 | 1016.2 |
| 20260509135023 | 51 | 262 | 5.2 | 7.8 | 0.00 | 0.00 | 0.00 | 74 | 1016.3 |
| 20260509134021 | 51 | 271 | 4.3 | 8.7 | 0.00 | 0.00 | 0.00 | 75 | 1016.4 |
| 20260509133022 | 51 | 274 | 5.2 | 9.6 | 0.00 | 0.00 | 0.00 | 76 | 1016.4 |
| 20260509132021 | 51 | 262 | 5.2 | 7.8 | 0.00 | 0.00 | 0.00 | 74 | 1016.3 |
| 20260509131024 | 51 | 273 | 4.3 | 7.0 | 0.00 | 0.00 | 0.00 | 75 | 1016.2 |
| 20260509130021 | 50 | 264 | 6.1 | 10.4 | 0.00 | 0.00 | 0.00 | 75 | 1016.1 |
| 20260509125022 | 50 | 264 | 5.2 | 8.7 | 0.00 | 0.00 | 0.00 | 76 | 1016.1 |
| 20260509124021 | 50 | 276 | 5.2 | 8.7 | 0.00 | 0.00 | 0.00 | 78 | 1016.2 |
| 20260509123022 | 49 | 257 | 5.2 | 8.7 | 0.00 | 0.00 | 0.00 | 78 | 1016.2 |
| 20260509122024 | 49 | 259 | 6.1 | 8.7 | 0.00 | 0.00 | 0.00 | 77 | 1016.2 |
| 20260509121021 | 49 | 265 | 5.2 | 8.7 | 0.00 | 0.00 | 0.00 | 77 | 1016.1 |
| 20260509120022 | 49 | 278 | 7.0 | 10.4 | 0.00 | 0.00 | 0.00 | 76 | 1016.0 |
| 20260509115021 | 49 | 264 | 6.1 | 10.4 | 0.00 | 0.00 | 0.00 | 78 | 1016.1 |
| 20260509114021 | 48 | 272 | 6.1 | 11.3 | 0.00 | 0.00 | 0.00 | 78 | 1016.1 |
| 20260509113023 | 48 | 281 | 6.1 | 10.4 | 0.00 | 0.00 | 0.00 | 77 | 1016.1 |
| 20260509112022 | 48 | 258 | 6.1 | 10.4 | 0.00 | 0.00 | 0.00 | 77 | 1016.0 |
| 20260509111021 | 48 | 270 | 7.0 | 12.2 | 0.00 | 0.00 | 0.00 | 77 | 1015.9 |
| 20260509110023 | 48 | 269 | 7.8 | 11.3 | 0.00 | 0.00 | 0.00 | 77 | 1016.0 |
| 20260509105023 | 48 | 250 | 6.1 | 11.3 | 0.00 | 0.00 | 0.00 | 77 | 1016.0 |
| 20260509104022 | 48 | 266 | 7.0 | 12.2 | 0.00 | 0.00 | 0.00 | 77 | 1016.0 |
| 20260509103021 | 48 | 260 | 7.0 | 11.3 | 0.00 | 0.00 | 0.00 | 77 | 1016.0 |
| 20260509102022 | 48 | 268 | 7.0 | 11.3 | 0.00 | 0.00 | 0.00 | 77 | 1016.0 |
| 20260509101022 | 48 | 256 | 7.0 | 11.3 | 0.00 | 0.00 | 0.00 | 76 | 1016.1 |
| 20260509100029 | 48 | 261 | 7.0 | 11.3 | 0.00 | 0.00 | 0.00 | 76 | 1015.9 |
| 20260509095022 | 48 | 272 | 7.8 | 11.3 | 0.00 | 0.00 | 0.00 | 76 | 1016.0 |
| 20260509094025 | 48 | 260 | 7.0 | 9.6 | 0.00 | 0.00 | 0.00 | 74 | 1016.0 |
| 20260509093024 | 48 | 244 | 7.0 | 14.8 | 0.00 | 0.00 | 0.00 | 74 | 1016.0 |
| 20260509092021 | 48 | 273 | 7.8 | 13.0 | 0.00 | 0.00 | 0.00 | 73 | 1016.2 |
| 20260509091022 | 49 | 243 | 6.1 | 13.9 | 0.00 | 0.00 | 0.00 | 72 | 1016.1 |
| 20260509090022 | 49 | 258 | 7.8 | 13.0 | 0.00 | 0.00 | 0.00 | 71 | 1016.1 |
| 20260509085021 | 49 | 261 | 6.1 | 11.3 | 0.00 | 0.00 | 0.00 | 71 | 1016.3 |
| 20260509084022 | 49 | 222 | 6.1 | 11.3 | 0.00 | 0.00 | 0.00 | 69 | 1016.3 |
| 20260509083021 | 49 | 269 | 7.0 | 14.8 | 0.00 | 0.00 | 0.00 | 68 | 1016.3 |
| 20260509082024 | 49 | 244 | 8.7 | 12.2 | 0.00 | 0.00 | 0.00 | 67 | 1016.5 |
| 20260509081024 | 48 | 272 | 6.1 | 11.3 | 0.00 | 0.00 | 0.00 | 65 | 1016.3 |
| 20260509080021 | 48 | 287 | 7.0 | 11.3 | 0.00 | 0.00 | 0.00 | 63 | 1016.4 |
| 20260509075022 | 48 | 249 | 5.2 | 11.3 | 0.00 | 0.00 | 0.00 | 62 | 1016.4 |
| 20260509074021 | 49 | 269 | 6.1 | 13.0 | 0.00 | 0.00 | 0.00 | 61 | 1016.6 |
| 20260509073024 | 49 | 257 | 7.0 | 13.9 | 0.00 | 0.00 | 0.00 | 60 | 1016.7 |
| 20260509072021 | 49 | 243 | 5.2 | 11.3 | 0.00 | 0.00 | 0.00 | 60 | 1016.6 |
| 20260509071022 | 49 | 263 | 7.0 | 11.3 | 0.00 | 0.00 | 0.00 | 58 | 1016.7 |
| 20260509070021 | 49 | 268 | 7.8 | 13.9 | 0.00 | 0.00 | 0.00 | 56 | 1016.6 |
| 20260509065021 | 49 | 246 | 8.7 | 12.2 | 0.00 | 0.00 | 0.00 | 56 | 1016.8 |
| 20260509064022 | 49 | 262 | 7.0 | 14.8 | 0.00 | 0.00 | 0.00 | 55 | 1016.9 |
| 20260509063023 | 49 | 221 | 7.0 | 13.0 | 0.00 | 0.00 | 0.00 | 53 | 1016.9 |
| 20260509062022 | 49 | 257 | 6.1 | 13.0 | 0.00 | 0.00 | 0.00 | 53 | 1017.1 |
| 20260509061021 | 50 | 266 | 7.8 | 13.0 | 0.00 | 0.00 | 0.00 | 51 | 1017.0 |
| 20260509060021 | 49 | 259 | 9.6 | 14.8 | 0.00 | 0.00 | 0.00 | 51 | 1017.1 |
| 20260509055022 | 49 | 249 | 7.8 | 13.0 | 0.00 | 0.00 | 0.00 | 51 | 1017.2 |
| 20260509054021 | 49 | 258 | 7.0 | 11.3 | 0.00 | 0.00 | 0.00 | 51 | 1017.4 |
| 20260509053024 | 49 | 269 | 7.0 | 12.2 | 0.00 | 0.00 | 0.00 | 51 | 1017.5 |
| 20260509052021 | 49 | 257 | 6.1 | 10.4 | 0.00 | 0.00 | 0.00 | 51 | 1017.5 |
| 20260509051022 | 49 | 268 | 7.0 | 12.2 | 0.00 | 0.00 | 0.00 | 51 | 1017.4 |
| 20260509050022 | 49 | 251 | 7.0 | 13.0 | 0.00 | 0.00 | 0.00 | 51 | 1017.4 |
| 20260509045021 | 49 | 225 | 8.7 | 13.9 | 0.00 | 0.00 | 0.00 | 52 | 1017.4 |
| 20260509044022 | 49 | 240 | 7.0 | 9.6 | 0.00 | 0.00 | 0.00 | 52 | 1017.5 |
| 20260509043022 | 49 | 254 | 6.1 | 11.3 | 0.00 | 0.00 | 0.00 | 53 | 1017.4 |
| 20260509042024 | 49 | 250 | 6.1 | 11.3 | 0.00 | 0.00 | 0.00 | 53 | 1017.5 |
| 20260509041022 | 49 | 259 | 6.1 | 10.4 | 0.00 | 0.00 | 0.00 | 53 | 1017.5 |
| 20260509040021 | 49 | 249 | 6.1 | 8.7 | 0.00 | 0.00 | 0.00 | 54 | 1017.6 |
| 20260509035024 | 49 | 267 | 5.2 | 11.3 | 0.00 | 0.00 | 0.00 | 54 | 1017.7 |
| 20260509034022 | 49 | 242 | 4.3 | 11.3 | 0.00 | 0.00 | 0.00 | 55 | 1017.7 |
| 20260509033021 | 49 | 238 | 6.1 | 10.4 | 0.00 | 0.00 | 0.00 | 55 | 1017.8 |
| 20260509032022 | 49 | 269 | 4.3 | 11.3 | 0.00 | 0.00 | 0.00 | 57 | 1017.7 |
| 20260509031023 | 49 | 255 | 5.2 | 8.7 | 0.00 | 0.00 | 0.00 | 56 | 1018.0 |
| 20260509030022 | 49 | 245 | 6.1 | 9.6 | 0.00 | 0.00 | 0.00 | 55 | 1018.0 |
| 20260509025021 | 49 | 236 | 5.2 | 11.3 | 0.00 | 0.00 | 0.00 | 55 | 1017.9 |
| 20260509024022 | 49 | 243 | 5.2 | 11.3 | 0.00 | 0.00 | 0.00 | 56 | 1018.1 |
| 20260509023021 | 49 | 239 | 5.2 | 8.7 | 0.00 | 0.00 | 0.00 | 56 | 1018.1 |
| 20260509022022 | 50 | 241 | 7.8 | 10.4 | 0.00 | 0.00 | 0.00 | 55 | 1018.1 |
| 20260509021026 | 50 | 233 | 5.2 | 12.2 | 0.00 | 0.00 | 0.00 | 56 | 1018.1 |